Aviation Digital Data Service (ADDS)

Output produced by TAFs form (2020 UTC 23 September 2014)
found at http://www.aviationweather.gov/adds/tafs/
 
KDEN 231953Z 31012KT 10SM SCT085 SCT110 SCT150 27/04 A3012 RMK AO2 SLP125 T02720044
KDEN 231812Z 2318/2424 33012KT P6SM SCT080 SCT110 BKN150 
     FM240100 VRB05KT P6SM FEW080 SCT120 
     FM240300 22007KT P6SM FEW120 
     FM241800 VRB05KT P6SM FEW100 SCT150